Aviation Digital Data Service (ADDS)

Output produced by METARs form (1800 UTC 20 September 2014)
found at http://aviationweather.gov/adds/metars/
 
KBDR 201732Z 2018/2118 18011KT P6SM FEW035 BKN070 
     FM201900 18011G17KT P6SM FEW035 SCT070 
     FM210100 18010KT P6SM BKN070 
     FM210400 15009KT P6SM BKN025 
     FM210800 16008KT 6SM BR BKN015 
     TEMPO 2109/2113 5SM -SHRA BR BKN007 
     FM211600 15006KT P6SM BKN025